Time;durP1;ratioP1;P1;durP2;ratioP2;P2;SDS_P1;SDS_P2;PMS_P1;PMS_P2;Temp;Humidity;BMP_temperature;BMP_pressure;BME280_temperature;BME280_humidity;BME280_pressure;Samples;Min_cycle;Max_cycle;Signal;HPM_P1;HPM_P2
2023/03/16 00:02:23;;;;;;;11.80;6.97;;;;;;;1.71;100.00;161017.69;5070308;28;20028;-58
2023/03/16 00:04:49;;;;;;;9.65;5.40;;;;;;;1.69;100.00;161012.31;5068689;28;20044;-58
2023/03/16 00:07:15;;;;;;;13.43;6.65;;;;;;;1.71;100.00;161017.69;5070764;28;20027;-59
2023/03/16 00:09:40;;;;;;;10.05;7.07;;;;;;;1.74;100.00;161027.06;5068645;28;20055;-59
2023/03/16 00:12:14;;;;;;;11.30;7.72;;;;;;;1.82;100.00;161045.84;5070785;28;20155;-59
2023/03/16 00:14:40;;;;;;;6.25;5.60;;;;;;;1.79;100.00;161039.16;5068874;28;20033;-59
2023/03/16 00:17:06;;;;;;;13.98;8.48;;;;;;;1.80;100.00;161041.84;5070859;28;20028;-59
2023/03/16 00:19:34;;;;;;;9.75;8.35;;;;;;;1.76;100.00;161031.09;5068934;28;20075;-59
2023/03/16 00:21:59;;;;;;;11.65;5.78;;;;;;;1.77;100.00;161033.78;5070623;28;20016;-59
2023/03/16 00:24:24;;;;;;;7.50;5.50;;;;;;;1.79;100.00;161037.84;5069673;28;20021;-58
2023/03/16 00:26:53;;;;;;;8.65;7.60;;;;;;;1.89;100.00;161066.00;5070303;28;20475;-59
2023/03/16 00:29:21;;;;;;;11.77;6.65;;;;;;;1.92;100.00;161071.34;5070620;28;20099;-59
2023/03/16 00:31:47;;;;;;;9.15;5.13;;;;;;;1.96;100.00;161083.44;5068708;28;20633;-59
2023/03/16 00:34:14;;;;;;;17.80;6.88;;;;;;;1.98;100.00;161087.44;5070698;28;20059;-59
2023/03/16 00:36:41;;;;;;;12.60;5.85;;;;;;;1.92;100.00;161071.34;5068319;28;20093;-59
2023/03/16 00:39:09;;;;;;;12.10;8.75;;;;;;;1.92;100.00;161071.34;5070499;28;20487;-59
2023/03/16 00:41:36;;;;;;;7.88;7.15;;;;;;;1.94;100.00;161076.72;5069078;28;20565;-59
2023/03/16 00:44:03;;;;;;;9.77;5.90;;;;;;;1.93;100.00;161075.41;5070060;28;20029;-59
2023/03/16 00:46:28;;;;;;;8.57;6.93;;;;;;;1.90;100.00;161068.66;5069011;28;20541;-59
2023/03/16 00:48:54;;;;;;;10.07;6.82;;;;;;;1.88;100.00;161061.94;5070125;28;20634;-59
2023/03/16 00:51:21;;;;;;;13.43;7.97;;;;;;;1.94;100.00;161076.72;5068993;28;20063;-59
2023/03/16 00:53:47;;;;;;;12.68;6.82;;;;;;;1.94;100.00;161076.72;5070285;28;20110;-60
2023/03/16 00:56:13;;;;;;;12.07;7.60;;;;;;;1.96;100.00;161083.44;5068631;28;20045;-60
2023/03/16 00:58:41;;;;;;;10.73;6.95;;;;;;;1.98;100.00;161087.44;5070040;28;20031;-60
2023/03/16 01:01:13;;;;;;;20.55;8.23;;;;;;;1.98;100.00;161088.81;5068833;28;20047;-59
2023/03/16 01:03:39;;;;;;;8.65;6.50;;;;;;;1.89;100.00;161066.00;5070189;28;20475;-59
2023/03/16 01:06:09;;;;;;;12.95;7.47;;;;;;;2.02;100.00;161098.19;5068567;28;20036;-60
2023/03/16 01:08:36;;;;;;;7.80;5.88;;;;;;;2.13;100.00;161127.72;5070084;28;20024;-60
2023/03/16 01:11:04;;;;;;;11.95;9.38;;;;;;;2.21;100.00;161149.19;5068781;28;20404;-60
2023/03/16 01:13:31;;;;;;;7.57;6.88;;;;;;;2.19;100.00;161143.84;5069744;28;20545;-60
2023/03/16 01:15:57;;;;;;;6.32;5.53;;;;;;;2.27;100.00;161162.66;5068501;28;20182;-60
2023/03/16 01:18:22;;;;;;;8.18;5.47;;;;;;;2.27;100.00;161163.97;5070115;28;20045;-60
2023/03/16 01:20:49;;;;;;;6.50;5.60;;;;;;;2.22;100.00;161151.88;5068089;28;20064;-60
2023/03/16 01:23:18;;;;;;;8.38;6.30;;;;;;;2.29;100.00;161167.97;5070274;28;20017;-60
2023/03/16 01:25:51;;;;;;;10.68;6.00;;;;;;;2.33;100.00;161178.75;5068500;28;20051;-59
2023/03/16 01:28:17;;;;;;;12.32;6.13;;;;;;;2.33;100.00;161178.75;5070147;28;20024;-59
2023/03/16 01:30:43;;;;;;;17.08;6.82;;;;;;;2.33;100.00;161178.75;5068450;28;20040;-59
2023/03/16 01:33:08;;;;;;;10.13;5.93;;;;;;;2.34;100.00;161182.75;5070039;28;20058;-59
2023/03/16 01:35:33;;;;;;;6.95;6.28;;;;;;;2.34;100.00;161182.75;5068351;28;20055;-60
2023/03/16 01:37:59;;;;;;;17.42;6.30;;;;;;;2.35;100.00;161185.44;5069514;28;20037;-59
2023/03/16 01:40:24;;;;;;;5.55;4.25;;;;;;;2.39;100.00;161194.84;5068489;28;20044;-59
2023/03/16 01:43:03;;;;;;;14.52;5.43;;;;;;;2.45;100.00;161210.94;5069771;28;20498;-59
2023/03/16 01:45:56;;;;;;;10.43;6.80;;;;;;;2.46;100.00;161213.63;5072349;28;20040;-59
2023/03/16 01:48:24;;;;;;;7.63;6.55;;;;;;;2.43;100.00;161205.56;5067834;28;20028;-60
2023/03/16 01:50:53;;;;;;;12.52;5.22;;;;;;;2.49;100.00;161220.34;5071681;28;20495;-60
2023/03/16 01:53:21;;;;;;;13.65;6.65;;;;;;;2.51;100.00;161227.03;5073445;28;20461;-60
2023/03/16 01:55:48;;;;;;;9.82;5.60;;;;;;;2.56;100.00;161239.13;5071611;28;20587;-60
2023/03/16 01:58:15;;;;;;;8.35;6.55;;;;;;;2.63;100.00;161257.94;5072919;28;20372;-60
2023/03/16 02:00:40;;;;;;;7.38;5.57;;;;;;;2.59;100.00;161245.84;5071083;28;20414;-60
2023/03/16 02:03:15;;;;;;;8.38;4.65;;;;;;;2.62;100.00;161255.25;5073427;28;20020;-59
2023/03/16 02:05:51;;;;;;;10.20;5.68;;;;;;;2.65;100.00;161261.94;5071755;28;20055;-59
2023/03/16 02:08:17;;;;;;;12.52;7.40;;;;;;;2.69;100.00;161274.03;5072919;28;20103;-59
2023/03/16 02:10:43;;;;;;;7.30;5.68;;;;;;;2.70;100.00;161275.41;5070940;28;20131;-59
2023/03/16 02:13:10;;;;;;;9.90;6.20;;;;;;;2.67;100.00;161268.69;5073131;28;20128;-59
2023/03/16 02:15:35;;;;;;;7.72;5.65;;;;;;;2.65;100.00;161261.94;5071676;28;20499;-59
2023/03/16 02:18:01;;;;;;;5.63;4.88;;;;;;;2.64;100.00;161259.31;5072533;28;20060;-59
2023/03/16 02:20:26;;;;;;;7.85;5.50;;;;;;;2.64;100.00;161260.63;5071386;28;20064;-59
2023/03/16 02:22:53;;;;;;;6.10;5.53;;;;;;;2.72;100.00;161280.75;5072552;28;20168;-59
2023/03/16 02:25:21;;;;;;;8.60;5.60;;;;;;;2.71;100.00;161278.09;5071457;28;20041;-59
2023/03/16 02:27:52;;;;;;;6.25;5.65;;;;;;;2.68;100.00;161270.03;5072549;28;20048;-59
2023/03/16 02:30:20;;;;;;;10.77;6.85;;;;;;;2.69;100.00;161272.72;5071356;28;20045;-59
2023/03/16 02:32:47;;;;;;;15.13;5.85;;;;;;;2.69;100.00;161272.72;5072080;28;20020;-60
2023/03/16 02:35:13;;;;;;;7.10;6.38;;;;;;;2.67;100.00;161267.31;5071239;28;20068;-60
2023/03/16 02:37:40;;;;;;;6.10;5.10;;;;;;;2.69;100.00;161274.03;5072472;28;20033;-60
2023/03/16 02:40:28;;;;;;;10.32;6.78;;;;;;;2.65;100.00;161261.94;5070687;28;20499;-60
2023/03/16 02:43:01;;;;;;;7.78;5.90;;;;;;;2.65;100.00;161261.94;5072097;28;20036;-60
2023/03/16 02:45:32;;;;;;;8.07;5.07;;;;;;;2.66;100.00;161264.63;5071116;28;20617;-60
2023/03/16 02:48:02;;;;;;;13.43;7.07;;;;;;;2.63;100.00;161257.94;5071983;28;20028;-60
2023/03/16 02:50:27;;;;;;;5.40;4.93;;;;;;;2.64;100.00;161259.31;5070974;28;20511;-60
2023/03/16 02:52:53;;;;;;;10.98;5.90;;;;;;;2.66;100.00;161266.00;5072082;28;20032;-60
2023/03/16 02:55:18;;;;;;;8.38;6.38;;;;;;;2.62;100.00;161255.25;5070390;28;20044;-60
2023/03/16 02:57:43;;;;;;;6.40;5.75;;;;;;;2.61;100.00;161252.53;5071715;28;20031;-60
2023/03/16 03:00:16;;;;;;;8.75;6.22;;;;;;;2.61;100.00;161251.22;5070400;28;20048;-60
2023/03/16 03:02:42;;;;;;;10.02;5.50;;;;;;;2.58;100.00;161244.53;5071368;28;20024;-60
2023/03/16 03:05:08;;;;;;;8.05;6.13;;;;;;;2.58;100.00;161243.16;5070547;28;20556;-60
2023/03/16 03:07:33;;;;;;;9.40;6.80;;;;;;;2.61;100.00;161252.53;5071525;28;20115;-60
2023/03/16 03:09:58;;;;;;;7.65;6.13;;;;;;;2.60;100.00;161249.91;5069898;28;20115;-59
2023/03/16 03:12:24;;;;;;;7.32;5.18;;;;;;;2.62;100.00;161253.91;5072013;28;20028;-59
2023/03/16 03:14:49;;;;;;;12.85;5.28;;;;;;;2.59;100.00;161245.84;5070229;28;20037;-59
2023/03/16 03:17:15;;;;;;;7.95;5.15;;;;;;;2.56;100.00;161239.13;5071404;28;20024;-59
2023/03/16 03:19:40;;;;;;;14.02;7.28;;;;;;;2.64;100.00;161259.31;5069795;28;20495;-59
2023/03/16 03:22:06;;;;;;;7.07;6.30;;;;;;;2.63;100.00;161257.94;5071368;28;20032;-59
2023/03/16 03:24:33;;;;;;;4.68;4.28;;;;;;;2.59;100.00;161245.84;5070183;28;20032;-59
2023/03/16 03:27:05;;;;;;;11.80;8.07;;;;;;;2.59;100.00;161245.84;5071266;28;20044;-59
2023/03/16 03:29:33;;;;;;;10.00;6.43;;;;;;;2.57;100.00;161240.50;5070449;28;20153;-59
2023/03/16 03:32:03;;;;;;;8.75;5.90;;;;;;;2.58;100.00;161244.53;5071033;28;20017;-59
2023/03/16 03:34:30;;;;;;;6.78;5.32;;;;;;;2.63;100.00;161256.59;5070176;28;20020;-59
2023/03/16 03:36:56;;;;;;;8.23;6.30;;;;;;;2.58;100.00;161243.16;5071112;28;20039;-59
2023/03/16 03:39:22;;;;;;;9.38;5.72;;;;;;;2.63;100.00;161257.94;5069512;28;20446;-58
2023/03/16 03:41:48;;;;;;;8.82;5.00;;;;;;;2.63;100.00;161256.59;5070921;28;20077;-58
2023/03/16 03:44:13;;;;;;;10.70;8.55;;;;;;;2.62;100.00;161255.25;5071345;28;20032;-59
2023/03/16 03:46:38;;;;;;;6.80;5.53;;;;;;;2.68;100.00;161271.34;5069395;28;20048;-59
2023/03/16 03:49:04;;;;;;;6.68;5.47;;;;;;;2.73;100.00;161282.09;5070692;28;20024;-58
2023/03/16 03:51:30;;;;;;;7.03;6.00;;;;;;;2.73;100.00;161283.44;5069792;28;20044;-58
2023/03/16 03:53:57;;;;;;;8.75;5.35;;;;;;;2.75;100.00;161287.50;5070494;28;20055;-58
2023/03/16 03:56:22;;;;;;;7.57;5.32;;;;;;;2.73;100.00;161283.44;5069094;28;20139;-58
2023/03/16 03:58:47;;;;;;;9.63;5.40;;;;;;;2.79;100.00;161299.53;5070760;28;20383;-58
2023/03/16 04:01:13;;;;;;;8.38;5.30;;;;;;;2.76;100.00;161291.50;5069211;28;20052;-58
2023/03/16 04:03:38;;;;;;;7.70;6.05;;;;;;;2.75;100.00;161287.50;5070407;28;20028;-58
2023/03/16 04:06:06;;;;;;;8.15;6.13;;;;;;;2.76;100.00;161291.50;5068876;28;20055;-58
2023/03/16 04:08:31;;;;;;;8.35;5.55;;;;;;;2.77;100.00;161294.19;5071046;28;20033;-58
2023/03/16 04:10:57;;;;;;;7.78;6.45;;;;;;;2.74;100.00;161286.13;5068909;28;20044;-58
2023/03/16 04:13:22;;;;;;;6.05;4.95;;;;;;;2.76;100.00;161291.50;5070967;28;20024;-58
2023/03/16 04:15:47;;;;;;;8.20;6.38;;;;;;;2.79;100.00;161298.22;5069231;28;20036;-58
2023/03/16 04:18:13;;;;;;;6.53;4.85;;;;;;;2.79;100.00;161299.53;5070367;28;20666;-58
2023/03/16 04:20:38;;;;;;;9.35;5.50;;;;;;;2.82;100.00;161307.59;5069008;28;20044;-58
2023/03/16 04:23:04;;;;;;;6.93;5.43;;;;;;;2.80;100.00;161300.91;5070727;28;20094;-58
2023/03/16 04:25:29;;;;;;;8.23;5.70;;;;;;;2.85;100.00;161314.31;5068884;28;20102;-58
2023/03/16 04:27:54;;;;;;;6.40;5.25;;;;;;;2.82;100.00;161307.59;5070440;28;20021;-59
2023/03/16 04:30:22;;;;;;;6.72;5.30;;;;;;;2.83;100.00;161308.97;5069160;28;20048;-58
2023/03/16 04:32:47;;;;;;;9.45;5.05;;;;;;;2.85;100.00;161315.69;5070184;28;20025;-59
2023/03/16 04:35:14;;;;;;;9.10;4.95;;;;;;;2.85;100.00;161315.69;5069371;28;20044;-59
2023/03/16 04:37:40;;;;;;;9.57;6.38;;;;;;;2.85;100.00;161315.69;5070333;28;20471;-59
2023/03/16 04:40:15;;;;;;;7.22;6.45;;;;;;;2.89;100.00;161323.72;5068723;28;20053;-59
2023/03/16 04:42:41;;;;;;;6.78;5.25;;;;;;;2.93;100.00;161334.50;5070346;28;20388;-58
2023/03/16 04:45:07;;;;;;;5.28;4.78;;;;;;;2.91;100.00;161329.09;5069286;28;20040;-60
2023/03/16 04:47:33;;;;;;;5.95;5.38;;;;;;;2.97;100.00;161346.59;5070480;28;20036;-60
2023/03/16 04:50:01;;;;;;;7.82;5.20;;;;;;;3.01;100.00;161355.97;5068651;28;20045;-60
2023/03/16 04:52:27;;;;;;;6.83;6.27;;;;;;;2.97;100.00;161345.22;5070729;28;20025;-59
2023/03/16 04:54:52;;;;;;;6.68;5.97;;;;;;;2.96;100.00;161342.50;5068505;28;20556;-59
2023/03/16 04:57:18;;;;;;;8.65;5.72;;;;;;;2.95;100.00;161339.81;5070213;28;20078;-59
2023/03/16 04:59:43;;;;;;;6.47;5.97;;;;;;;2.88;100.00;161321.03;5068363;28;20052;-59
2023/03/16 05:02:09;;;;;;;9.90;6.15;;;;;;;2.89;100.00;161325.09;5069999;28;20025;-59
2023/03/16 05:04:34;;;;;;;9.02;5.95;;;;;;;2.85;100.00;161315.69;5068912;28;20032;-59
2023/03/16 05:06:59;;;;;;;5.28;4.88;;;;;;;2.83;100.00;161310.31;5070432;28;20052;-59
2023/03/16 05:09:25;;;;;;;10.45;5.90;;;;;;;2.83;100.00;161310.31;5068270;28;20029;-59
2023/03/16 05:11:50;;;;;;;5.40;4.72;;;;;;;2.80;100.00;161302.22;5069669;28;20020;-62
2023/03/16 05:14:15;;;;;;;9.38;5.47;;;;;;;2.84;100.00;161313.00;5069635;28;20122;-58
2023/03/16 05:16:41;;;;;;;5.50;5.00;;;;;;;2.83;100.00;161308.97;5041493;28;20072;-57
2023/03/16 05:19:06;;;;;;;5.47;4.60;;;;;;;2.85;100.00;161314.31;5051750;28;20053;-57
2023/03/16 05:21:34;;;;;;;10.15;4.78;;;;;;;2.89;100.00;161323.72;5064802;28;20040;-57
2023/03/16 05:23:59;;;;;;;9.68;6.22;;;;;;;2.75;100.00;161287.50;5061240;28;20597;-57
2023/03/16 05:26:25;;;;;;;9.88;7.53;;;;;;;2.81;100.00;161304.91;5052453;28;20064;-58
2023/03/16 05:28:50;;;;;;;4.95;4.55;;;;;;;2.76;100.00;161291.50;5053914;28;20017;-58
2023/03/16 05:31:16;;;;;;;6.72;6.07;;;;;;;2.68;100.00;161270.03;5053084;28;20045;-57
2023/03/16 05:33:43;;;;;;;4.38;3.97;;;;;;;2.76;100.00;161291.50;5053445;28;20041;-58
2023/03/16 05:36:09;;;;;;;5.28;4.78;;;;;;;2.66;100.00;161266.00;5051903;28;20095;-57
2023/03/16 05:38:35;;;;;;;5.95;5.20;;;;;;;2.78;100.00;161296.88;5054031;28;20025;-58
2023/03/16 05:41:03;;;;;;;9.07;7.28;;;;;;;2.78;100.00;161295.53;5049815;28;20504;-58
2023/03/16 05:43:29;;;;;;;7.40;6.13;;;;;;;2.82;100.00;161307.59;5050128;28;20155;-57
2023/03/16 05:45:54;;;;;;;5.80;5.30;;;;;;;2.85;100.00;161315.69;5056113;28;20131;-58
2023/03/16 05:48:20;;;;;;;5.32;4.82;;;;;;;2.87;100.00;161318.38;5063076;28;20521;-57
2023/03/16 05:50:46;;;;;;;6.30;4.75;;;;;;;2.89;100.00;161323.72;5052429;28;20036;-58
2023/03/16 05:53:11;;;;;;;7.43;5.53;;;;;;;2.91;100.00;161330.41;5052880;28;20484;-58
2023/03/16 05:55:36;;;;;;;9.18;6.32;;;;;;;2.90;100.00;161327.78;5051934;28;20111;-58
2023/03/16 05:58:02;;;;;;;6.72;5.93;;;;;;;2.90;100.00;161326.41;5056403;28;20028;-58
2023/03/16 06:00:28;;;;;;;9.05;5.47;;;;;;;2.92;100.00;161331.78;5060741;28;20040;-58
2023/03/16 06:02:53;;;;;;;7.95;5.70;;;;;;;2.90;100.00;161326.41;5059816;28;20032;-57
2023/03/16 06:05:20;;;;;;;8.98;5.25;;;;;;;2.92;100.00;161331.78;5059544;28;20040;-57
2023/03/16 06:07:47;;;;;;;7.32;5.13;;;;;;;2.88;100.00;161322.41;5060254;28;20039;-57
2023/03/16 06:10:12;;;;;;;6.05;5.10;;;;;;;2.89;100.00;161323.72;5063356;28;20044;-57
2023/03/16 06:12:38;;;;;;;5.72;4.55;;;;;;;2.90;100.00;161326.41;5062582;28;20111;-57
2023/03/16 06:15:09;;;;;;;7.65;4.70;;;;;;;2.92;100.00;161331.78;5061405;28;20136;-58
2023/03/16 06:17:35;;;;;;;27.20;6.28;;;;;;;2.98;100.00;161347.91;5061024;28;20033;-57
2023/03/16 06:20:01;;;;;;;7.60;4.80;;;;;;;3.00;100.00;161353.28;5056688;28;20399;-58
2023/03/16 06:22:28;;;;;;;7.95;5.53;;;;;;;3.02;100.00;161358.63;5059801;28;20024;-58
2023/03/16 06:24:54;;;;;;;7.00;6.45;;;;;;;3.09;100.00;161377.44;5058926;28;20516;-58
2023/03/16 06:27:20;;;;;;;7.00;4.57;;;;;;;3.17;100.00;161398.91;5061726;28;20020;-58
2023/03/16 06:29:46;;;;;;;6.20;5.53;;;;;;;3.18;100.00;161401.63;5060940;28;20530;-58
2023/03/16 06:32:12;;;;;;;7.13;6.20;;;;;;;3.28;100.00;161427.13;5072719;28;20032;-57
2023/03/16 06:34:38;;;;;;;5.65;4.82;;;;;;;3.30;100.00;161431.19;5071013;28;20107;-58
2023/03/16 06:37:03;;;;;;;6.63;5.93;;;;;;;3.37;100.00;161450.00;5072259;28;20231;-58
2023/03/16 06:39:29;;;;;;;10.02;5.93;;;;;;;3.38;100.00;161452.69;5071041;28;20052;-58
2023/03/16 06:41:55;;;;;;;7.10;6.50;;;;;;;3.41;100.00;161460.72;5071508;28;20105;-58
2023/03/16 06:44:21;;;;;;;7.00;5.40;;;;;;;3.46;100.00;161474.13;5072476;28;20067;-58
2023/03/16 06:46:46;;;;;;;9.38;6.65;;;;;;;3.46;100.00;161472.81;5070499;28;20041;-58
2023/03/16 06:49:11;;;;;;;8.35;6.15;;;;;;;3.54;100.00;161494.31;5071159;28;20033;-58
2023/03/16 06:51:36;;;;;;;6.18;4.90;;;;;;;3.57;100.00;161502.41;5069303;28;20037;-58
2023/03/16 06:54:02;;;;;;;6.20;5.03;;;;;;;3.61;100.00;161511.81;5071224;28;20471;-58
2023/03/16 06:56:27;;;;;;;6.55;4.70;;;;;;;3.62;100.00;161514.44;5069764;28;20407;-57
2023/03/16 06:58:53;;;;;;;5.50;5.00;;;;;;;3.68;100.00;161530.59;5071275;28;20021;-58
2023/03/16 07:01:19;;;;;;;6.47;4.95;;;;;;;3.69;100.00;161533.25;5069361;28;20484;-58
2023/03/16 07:03:44;;;;;;;5.95;5.38;;;;;;;3.69;100.00;161533.25;5071967;28;20036;-58
2023/03/16 07:06:11;;;;;;;7.82;5.55;;;;;;;3.74;100.00;161545.34;5070730;28;20044;-58
2023/03/16 07:08:36;;;;;;;7.00;5.68;;;;;;;3.77;100.00;161553.44;5054184;28;20527;-58
2023/03/16 07:11:01;;;;;;;8.95;7.10;;;;;;;3.83;100.00;161569.56;5050337;28;20087;-57
2023/03/16 07:13:27;;;;;;;6.85;6.20;;;;;;;3.87;100.00;161578.97;5051843;28;20029;-58
2023/03/16 07:15:52;;;;;;;8.25;5.18;;;;;;;3.88;100.00;161581.66;5049964;28;20407;-58
2023/03/16 07:18:19;;;;;;;6.90;5.72;;;;;;;3.96;100.00;161603.16;5051628;28;20049;-58
2023/03/16 07:20:44;;;;;;;6.20;5.18;;;;;;;3.97;100.00;161605.84;5052567;28;20127;-57
2023/03/16 07:23:11;;;;;;;6.85;6.03;;;;;;;3.97;100.00;161605.84;5062091;28;20105;-58
2023/03/16 07:25:37;;;;;;;6.05;5.45;;;;;;;3.91;100.00;161589.75;5052900;28;20041;-58
2023/03/16 07:28:02;;;;;;;7.90;5.55;;;;;;;3.92;100.00;161593.75;5051523;28;20059;-58
2023/03/16 07:30:28;;;;;;;5.25;4.75;;;;;;;3.94;100.00;161597.78;5050139;28;20535;-58
2023/03/16 07:32:53;;;;;;;6.45;5.50;;;;;;;4.02;100.00;161619.28;5051335;28;20105;-58
2023/03/16 07:35:20;;;;;;;10.25;6.25;;;;;;;4.17;100.00;161656.91;5060879;28;20041;-58
2023/03/16 07:37:45;;;;;;;10.95;5.40;;;;;;;4.29;100.00;161689.16;5070757;28;20103;-58
2023/03/16 07:40:12;;;;;;;6.22;5.65;;;;;;;4.40;100.00;161717.38;5062290;28;20044;-58
2023/03/16 07:42:38;;;;;;;8.10;6.95;;;;;;;4.52;100.00;161748.31;5050808;28;20361;-58
2023/03/16 07:45:04;;;;;;;10.88;5.57;;;;;;;4.58;100.00;161765.81;5049596;28;20056;-58
2023/03/16 07:47:30;;;;;;;8.93;6.35;;;;;;;4.70;100.00;161796.72;5048775;28;20039;-58
2023/03/16 07:49:56;;;;;;;6.70;5.05;;;;;;;4.78;100.00;161815.56;5049493;28;20037;-57
2023/03/16 07:52:22;;;;;;;10.65;6.65;;;;;;;4.83;100.00;161830.34;5050735;28;20044;-58
2023/03/16 07:54:47;;;;;;;12.85;7.15;;;;;;;4.92;100.00;161854.53;5049424;28;20040;-58
2023/03/16 07:57:13;;;;;;;10.00;7.22;;;;;;;4.93;100.00;161855.91;5051027;28;20032;-58
2023/03/16 07:59:38;;;;;;;7.28;6.55;;;;;;;4.98;100.00;161868.00;5048843;28;20025;-58
2023/03/16 08:02:04;;;;;;;6.80;6.28;;;;;;;5.02;100.00;161878.75;5050830;28;20025;-58
2023/03/16 08:04:30;;;;;;;8.15;5.80;;;;;;;5.09;100.00;161897.56;5049034;28;20086;-58
2023/03/16 08:06:59;;;;;;;13.25;7.20;;;;;;;5.24;100.00;161936.59;5050265;28;20024;-58
2023/03/16 08:09:25;;;;;;;7.70;6.30;;;;;;;5.38;100.00;161972.88;5049188;28;20487;-57
2023/03/16 08:11:50;;;;;;;8.05;6.82;;;;;;;5.41;100.00;161980.97;5054190;28;20051;-58
2023/03/16 08:14:16;;;;;;;7.28;6.60;;;;;;;5.39;100.00;161976.97;5059847;28;20012;-58
2023/03/16 08:16:41;;;;;;;11.18;7.15;;;;;;;5.42;100.00;161983.69;5067360;28;20045;-58
2023/03/16 08:19:07;;;;;;;11.68;7.53;;;;;;;5.43;100.00;161985.00;5061259;28;20045;-58
2023/03/16 08:21:33;;;;;;;10.75;5.50;;;;;;;5.46;100.00;161993.09;5060224;28;20044;-58
2023/03/16 08:23:58;;;;;;;8.02;6.57;;;;;;;5.48;100.00;161998.44;5059677;28;20020;-58
2023/03/16 08:26:25;;;;;;;10.60;6.50;;;;;;;5.52;100.00;162009.22;5065230;28;20094;-58
2023/03/16 08:28:51;;;;;;;8.80;6.85;;;;;;;5.51;100.00;162007.84;5069830;28;20059;-58
2023/03/16 08:31:17;;;;;;;8.65;6.50;;;;;;;5.48;100.00;161998.44;5069472;28;20060;-57
2023/03/16 08:33:45;;;;;;;12.35;6.70;;;;;;;5.51;100.00;162006.53;5070411;28;20403;-58
2023/03/16 08:36:12;;;;;;;8.20;7.32;;;;;;;5.48;100.00;161999.81;5064126;28;20040;-58
2023/03/16 08:38:41;;;;;;;7.28;6.40;;;;;;;5.53;100.00;162011.94;5066705;28;20074;-58
2023/03/16 08:41:07;;;;;;;11.77;7.55;;;;;;;5.52;100.00;162010.56;5068810;28;20037;-58
2023/03/16 08:43:33;;;;;;;16.52;8.52;;;;;;;5.48;100.00;161999.81;5067062;28;20039;-58
2023/03/16 08:45:58;;;;;;;7.65;6.47;;;;;;;5.48;100.00;161999.81;5062799;28;20044;-58
2023/03/16 08:48:25;;;;;;;9.18;6.50;;;;;;;5.58;100.00;162025.38;5059046;28;20025;-58
2023/03/16 08:50:50;;;;;;;8.07;7.22;;;;;;;5.60;100.00;162030.75;5058575;28;20047;-58
2023/03/16 08:53:17;;;;;;;14.10;6.45;;;;;;;5.60;100.00;162030.75;5053535;28;20021;-58
2023/03/16 08:55:44;;;;;;;10.48;6.43;;;;;;;5.60;100.00;162030.75;5052956;28;20037;-58
2023/03/16 08:58:10;;;;;;;9.80;8.05;;;;;;;5.58;100.00;162024.03;5054184;28;20472;-58
2023/03/16 09:00:37;;;;;;;9.18;7.15;;;;;;;5.54;100.00;162014.63;5052912;28;20068;-57
2023/03/16 09:03:03;;;;;;;11.68;7.55;;;;;;;5.46;100.00;161993.09;5056627;28;20028;-58
2023/03/16 09:05:29;;;;;;;9.48;6.90;;;;;;;5.42;100.00;161982.31;5059853;28;20041;-58
2023/03/16 09:07:55;;;;;;;10.85;6.40;;;;;;;5.37;100.00;161971.56;5054097;28;20495;-58
2023/03/16 09:10:22;;;;;;;6.57;6.00;;;;;;;5.27;100.00;161944.66;5052781;28;20041;-58
2023/03/16 09:12:48;;;;;;;11.70;7.95;;;;;;;5.15;100.00;161913.69;5053306;28;20492;-58
2023/03/16 09:15:14;;;;;;;10.73;6.35;;;;;;;5.05;100.00;161886.81;5061549;28;20148;-58
2023/03/16 09:17:40;;;;;;;8.90;7.25;;;;;;;5.04;100.00;161885.47;5073725;28;20053;-57
2023/03/16 09:20:09;;;;;;;11.88;6.35;;;;;;;5.04;100.00;161885.47;5071996;28;20044;-58
2023/03/16 09:22:36;;;;;;;7.55;6.75;;;;;;;5.03;100.00;161881.44;5073892;28;20024;-57
2023/03/16 09:25:02;;;;;;;10.18;6.47;;;;;;;5.05;100.00;161888.16;5072624;28;20036;-57
2023/03/16 09:27:28;;;;;;;8.55;7.57;;;;;;;5.06;100.00;161890.84;5073823;28;20028;-58
2023/03/16 09:29:55;;;;;;;7.63;6.40;;;;;;;5.11;100.00;161901.59;5072320;28;20041;-58
2023/03/16 09:32:21;;;;;;;9.02;7.00;;;;;;;5.16;100.00;161915.06;5073892;28;20111;-58
2023/03/16 09:34:46;;;;;;;8.43;6.03;;;;;;;5.25;100.00;161939.25;5071550;28;20124;-58
2023/03/16 09:37:11;;;;;;;11.60;7.47;;;;;;;5.37;100.00;161971.56;5074022;28;20032;-58
2023/03/16 09:39:37;;;;;;;8.43;6.82;;;;;;;5.48;100.00;161998.44;5071834;28;20040;-57
2023/03/16 09:42:24;;;;;;;7.28;5.88;;;;;;;5.58;100.00;162024.03;5073297;28;20081;-58
2023/03/16 09:45:10;;;;;;;13.05;7.72;;;;;;;5.75;100.00;162068.44;5072133;28;20384;-57
2023/03/16 09:47:37;;;;;;;8.35;5.75;;;;;;;5.89;100.00;162106.09;5073538;28;20032;-58
2023/03/16 09:50:08;;;;;;;7.82;6.68;;;;;;;5.95;100.00;162120.91;5071901;28;20033;-58
2023/03/16 09:52:38;;;;;;;8.60;6.70;;;;;;;5.95;100.00;162120.91;5073813;28;20103;-58
2023/03/16 09:55:22;;;;;;;9.63;5.35;;;;;;;5.96;100.00;162124.94;5072064;28;20181;-58
2023/03/16 09:57:49;;;;;;;8.55;6.60;;;;;;;5.94;100.00;162118.22;5067055;28;20052;-58
2023/03/16 10:00:17;;;;;;;10.48;6.65;;;;;;;5.92;100.00;162112.81;5060406;28;20040;-58
2023/03/16 10:03:16;;;;;;;9.13;5.93;;;;;;;5.98;100.00;162130.34;5063061;28;20043;-58
2023/03/16 10:05:41;;;;;;;6.68;6.07;;;;;;;5.96;100.00;162124.94;5039432;28;20544;-58
2023/03/16 10:08:27;;;;;;;8.10;6.60;;;;;;;6.02;100.00;162139.81;5033189;28;20029;-58
2023/03/16 10:11:02;;;;;;;6.65;5.75;;;;;;;6.05;100.00;162146.53;5034661;28;20029;-58
2023/03/16 10:13:36;;;;;;;6.70;6.10;;;;;;;6.06;100.00;162150.56;5033000;28;20071;-58
2023/03/16 10:16:08;;;;;;;8.70;6.10;;;;;;;5.99;100.00;162133.09;5031729;28;20475;-58
2023/03/16 10:19:15;;;;;;;7.07;5.45;;;;;;;6.16;100.00;162176.13;5032935;28;20056;-57
2023/03/16 10:21:42;;;;;;;9.85;6.53;;;;;;;6.30;100.00;162213.78;5051194;28;20079;-58
2023/03/16 10:24:35;;;;;;;6.85;6.15;;;;;;;6.41;100.00;162240.75;5052896;28;20040;-58
2023/03/16 10:27:03;;;;;;;6.93;5.40;;;;;;;6.37;100.00;162230.00;5056195;28;20047;-58
2023/03/16 10:29:35;;;;;;;9.82;6.40;;;;;;;6.41;100.00;162240.75;5051560;28;20422;-57
2023/03/16 10:32:11;;;;;;;6.35;4.78;;;;;;;6.48;100.00;162259.59;5058827;28;20062;-58
2023/03/16 10:34:37;;;;;;;10.00;5.90;;;;;;;6.49;100.00;162262.28;5069848;28;20052;-58
2023/03/16 10:37:03;;;;;;;6.95;5.13;;;;;;;6.64;100.00;162302.69;5072520;28;20631;-58
2023/03/16 10:39:35;;;;;;;8.00;6.20;;;;;;;6.89;100.00;162367.28;5068622;28;20576;-58
2023/03/16 10:42:01;;;;;;;6.60;5.90;;;;;;;6.75;100.00;162329.56;5069689;28;20028;-58
2023/03/16 10:44:28;;;;;;;7.18;6.47;;;;;;;6.89;100.00;162367.28;5071076;28;20021;-58
2023/03/16 10:47:07;;;;;;;6.25;5.65;;;;;;;6.86;100.00;162357.84;5071952;28;20025;-58
2023/03/16 10:49:38;;;;;;;6.57;4.63;;;;;;;6.96;100.00;162386.13;5070336;28;20067;-58
2023/03/16 10:52:22;;;;;;;11.93;6.63;;;;;;;7.02;100.00;162399.63;5072322;28;20503;-58
2023/03/16 10:54:51;;;;;;;8.68;5.43;;;;;;;7.03;100.00;162403.66;5070820;28;20044;-58
2023/03/16 10:57:25;;;;;;;7.45;5.32;;;;;;;6.96;100.00;162386.13;5071961;28;20031;-58
2023/03/16 10:59:53;;;;;;;8.98;6.18;;;;;;;6.86;100.00;162359.22;5067421;28;20044;-58
2023/03/16 11:02:22;;;;;;;10.07;6.15;;;;;;;6.87;100.00;162361.91;5060036;28;20041;-58
2023/03/16 11:04:48;;;;;;;8.20;5.43;;;;;;;6.95;100.00;162382.09;5050257;28;20033;-58
2023/03/16 11:07:16;;;;;;;5.55;4.75;;;;;;;6.84;100.00;162353.81;5052313;28;20058;-57
2023/03/16 11:09:42;;;;;;;7.57;5.45;;;;;;;6.97;100.00;162388.81;5050633;28;20056;-58
2023/03/16 11:12:19;;;;;;;7.68;5.95;;;;;;;7.05;100.00;162407.66;5051631;28;20053;-58
2023/03/16 11:14:45;;;;;;;6.78;6.03;;;;;;;6.95;100.00;162383.47;5050314;28;20039;-58
2023/03/16 11:17:17;;;;;;;7.25;5.00;;;;;;;7.05;100.00;162407.66;5051947;28;20029;-58
2023/03/16 11:19:53;;;;;;;7.07;6.03;;;;;;;7.03;100.00;162402.31;5049468;28;20566;-58
2023/03/16 11:22:23;;;;;;;6.75;5.97;;;;;;;6.97;100.00;162387.50;5051796;28;20563;-58
2023/03/16 11:25:08;;;;;;;7.00;5.45;;;;;;;7.18;100.00;162441.34;5064476;28;20045;-58
2023/03/16 11:27:35;;;;;;;8.82;5.95;;;;;;;7.45;100.00;162512.75;5057442;28;20422;-58